createdAt,value
2018-11-12T00:00:20.934Z,0
2018-11-12T00:01:22.559Z,0
2018-11-12T00:02:22.632Z,0
2018-11-12T00:03:24.713Z,0
2018-11-12T00:04:25.788Z,0
2018-11-12T00:05:26.030Z,0
2018-11-12T00:06:28.112Z,0
2018-11-12T00:07:28.906Z,0
2018-11-12T00:08:29.339Z,0
2018-11-12T00:09:30.127Z,0
2018-11-12T00:10:30.922Z,0
2018-11-12T00:11:31.718Z,0
2018-11-12T00:12:31.960Z,0
2018-11-12T00:13:33.318Z,0
2018-11-12T00:14:33.113Z,0
2018-11-12T00:15:33.911Z,0
2018-11-12T00:16:34.711Z,0
2018-11-12T00:17:35.507Z,0
2018-11-12T00:18:36.664Z,0
2018-11-12T00:19:36.904Z,0
2018-11-12T00:20:38.539Z,0
2018-11-12T00:21:39.088Z,0
2018-11-12T00:22:40.441Z,0
2018-11-12T00:23:39.963Z,0
2018-11-12T00:24:41.761Z,0
2018-11-12T00:25:42.562Z,0
2018-11-12T00:26:43.914Z,0
2018-11-12T00:27:45.282Z,0
2018-11-12T00:28:46.126Z,0
2018-11-12T00:29:46.645Z,0
2018-11-12T00:30:47.719Z,0
2018-11-12T00:31:48.516Z,0
2018-11-12T00:32:49.591Z,0
2018-11-12T00:33:50.224Z,0
2018-11-12T00:34:50.574Z,0
2018-11-12T00:35:50.823Z,0
2018-11-12T00:36:52.609Z,0
2018-11-12T00:37:53.518Z,0
2018-11-12T00:38:53.920Z,0
2018-11-12T00:39:54.438Z,0
2018-11-12T00:40:55.515Z,0
2018-11-12T00:41:55.590Z,0
2018-11-12T00:42:56.667Z,0
2018-11-12T00:43:57.740Z,0
2018-11-12T00:44:59.378Z,0
2018-11-12T00:45:59.742Z,0
2018-11-12T00:47:01.094Z,0
2018-11-12T00:48:01.444Z,0
2018-11-12T00:49:02.310Z,0
2018-11-12T00:50:03.681Z,0
2018-11-12T00:51:03.202Z,0
2018-11-12T00:52:03.997Z,0
2018-11-12T00:53:04.351Z,0
2018-11-12T00:54:06.255Z,0
2018-11-12T00:55:05.776Z,0
2018-11-12T00:56:06.019Z,0
2018-11-12T00:57:07.654Z,0
2018-11-12T00:58:08.733Z,0
2018-11-12T00:59:08.854Z,0
2018-11-12T01:00:10.206Z,0
2018-11-12T01:01:23.687Z,0
2018-11-12T01:02:25.323Z,0
2018-11-12T01:03:25.399Z,0
2018-11-12T01:04:25.642Z,0
2018-11-12T01:05:26.430Z,0
2018-11-12T01:06:28.223Z,0
2018-11-12T01:07:29.022Z,0
2018-11-12T01:08:30.096Z,0
2018-11-12T01:09:29.892Z,0
2018-11-12T01:10:30.410Z,0
2018-11-12T01:11:31.481Z,0
2018-11-12T01:12:32.632Z,0
2018-11-12T01:13:33.984Z,0
2018-11-12T01:14:34.505Z,0
2018-11-12T01:15:36.022Z,0
2018-11-12T01:16:36.542Z,0
2018-11-12T01:17:37.059Z,0
2018-11-12T01:18:38.132Z,0
2018-11-12T01:19:38.373Z,0
2018-11-12T01:20:39.893Z,0
2018-11-12T01:21:40.685Z,0
2018-11-12T01:22:42.371Z,0
2018-11-12T01:23:42.170Z,0
2018-11-12T01:24:43.243Z,0
2018-11-12T01:25:43.766Z,0
2018-11-12T01:26:45.400Z,0
2018-11-12T01:27:45.473Z,0
2018-11-12T01:28:46.826Z,0
2018-11-12T01:29:47.339Z,0
2018-11-12T01:30:48.410Z,0
2018-11-12T01:31:49.761Z,0
2018-11-12T01:32:49.602Z,0
2018-11-12T01:33:50.952Z,0
2018-11-12T01:34:50.750Z,0
2018-11-12T01:35:51.269Z,0
2018-11-12T01:36:53.064Z,0
2018-11-12T01:37:53.859Z,0
2018-11-12T01:38:54.657Z,0
2018-11-12T01:39:55.725Z,0
2018-11-12T01:40:56.797Z,0
2018-11-12T01:41:57.806Z,0
2018-11-12T01:42:57.941Z,0
2018-11-12T01:43:59.291Z,0
2018-11-12T01:45:00.095Z,0
2018-11-12T01:46:01.164Z,0
2018-11-12T01:47:01.966Z,0
2018-11-12T01:48:03.047Z,0
2018-11-12T01:49:04.413Z,0
2018-11-12T01:50:04.491Z,0
2018-11-12T01:51:05.299Z,0
2018-11-12T01:52:05.820Z,0
2018-11-12T01:53:07.776Z,0
2018-11-12T01:54:07.851Z,0
2018-11-12T01:55:08.371Z,0
2018-11-12T01:56:09.998Z,0
2018-11-12T01:57:10.350Z,0
2018-11-12T01:58:11.149Z,0
2018-11-12T01:59:12.223Z,0
2018-11-12T02:00:12.301Z,0
2018-11-12T02:01:12.818Z,0
2018-11-12T02:02:13.952Z,0
2018-11-12T02:03:14.515Z,0
2018-11-12T02:04:15.590Z,0
2018-11-12T02:05:16.228Z,0
2018-11-12T02:06:16.027Z,0
2018-11-12T02:07:17.106Z,0
2018-11-12T02:08:17.625Z,0
2018-11-12T02:09:19.023Z,0
2018-11-12T02:10:20.672Z,0
2018-11-12T02:11:20.507Z,0
2018-11-12T02:12:20.750Z,0
2018-11-12T02:13:22.420Z,0
2018-11-12T02:14:23.270Z,0
2018-11-12T02:15:23.610Z,0
2018-11-12T02:16:24.518Z,0
2018-11-12T02:17:24.318Z,0
2018-11-12T02:18:24.558Z,0
2018-11-12T02:19:26.077Z,0
2018-11-12T02:20:27.870Z,0
2018-11-12T02:21:28.385Z,0
2018-11-12T02:22:30.348Z,0
2018-11-12T02:23:30.776Z,0
2018-11-12T02:24:31.851Z,0
2018-11-12T02:25:31.925Z,0
2018-11-12T02:26:33.290Z,0
2018-11-12T02:27:33.366Z,0
2018-11-12T02:28:34.167Z,0
2018-11-12T02:29:35.603Z,0
2018-11-12T02:30:36.428Z,0
2018-11-12T02:31:37.219Z,0
2018-11-12T02:32:38.293Z,0
2018-11-12T02:33:39.212Z,0
2018-11-12T02:34:40.285Z,0
2018-11-12T02:35:40.918Z,0
2018-11-12T02:36:41.834Z,0
2018-11-12T02:37:42.208Z,0
2018-11-12T02:38:42.842Z,0
2018-11-12T02:39:44.031Z,0
2018-11-12T02:40:44.722Z,0
2018-11-12T02:41:44.507Z,0
2018-11-12T02:42:45.583Z,0
2018-11-12T02:43:46.700Z,0
2018-11-12T02:44:47.218Z,0
2018-11-12T02:45:48.026Z,0
2018-11-12T02:46:49.107Z,0
2018-11-12T02:47:51.315Z,0
2018-11-12T02:48:52.505Z,0
2018-11-12T02:49:53.133Z,0
2018-11-12T02:50:52.934Z,0
2018-11-12T02:51:54.568Z,0
2018-11-12T02:52:55.653Z,0
2018-11-12T02:53:56.609Z,0
2018-11-12T02:54:56.682Z,0
2018-11-12T02:55:57.042Z,0
2018-11-12T02:56:58.112Z,0
2018-11-12T02:57:59.748Z,0
2018-11-12T02:59:00.320Z,0
2018-11-12T03:00:02.280Z,0
2018-11-12T03:01:02.375Z,0
2018-11-12T03:02:03.170Z,0
2018-11-12T03:03:03.691Z,0
2018-11-12T03:04:04.253Z,0
2018-11-12T03:05:06.341Z,0
2018-11-12T03:06:06.137Z,0
2018-11-12T03:07:06.933Z,0
2018-11-12T03:08:08.018Z,0
2018-11-12T03:09:08.536Z,0
2018-11-12T03:10:10.745Z,0
2018-11-12T03:11:10.816Z,0
2018-11-12T03:12:12.171Z,0
2018-11-12T03:13:12.520Z,0
2018-11-12T03:14:13.213Z,0
2018-11-12T03:15:14.574Z,0
2018-11-12T03:16:14.649Z,0
2018-11-12T03:17:15.995Z,0
2018-11-12T03:18:16.794Z,0
2018-11-12T03:19:17.590Z,0
2018-11-12T03:20:17.939Z,0
2018-11-12T03:21:19.876Z,0
2018-11-12T03:22:19.968Z,0
2018-11-12T03:23:20.487Z,0
2018-11-12T03:24:22.196Z,0
2018-11-12T03:25:22.275Z,0
2018-11-12T03:26:23.184Z,0
2018-11-12T03:27:23.882Z,0
2018-11-12T03:28:24.561Z,0
2018-11-12T03:29:24.674Z,0
2018-11-12T03:30:26.337Z,0
2018-11-12T03:31:27.531Z,0
2018-11-12T03:32:27.892Z,0
2018-11-12T03:33:29.537Z,0
2018-11-12T03:34:29.665Z,0
2018-11-12T03:35:30.471Z,0
2018-11-12T03:36:31.545Z,0
2018-11-12T03:37:32.620Z,0
2018-11-12T03:38:33.418Z,0
2018-11-12T03:39:35.848Z,0
2018-11-12T03:40:36.487Z,0
2018-11-12T03:41:37.841Z,0
2018-11-12T03:42:37.635Z,0
2018-11-12T03:43:38.261Z,0
2018-11-12T03:44:39.242Z,0
2018-11-12T03:45:39.595Z,0
2018-11-12T03:46:39.670Z,0
2018-11-12T03:47:41.022Z,0
2018-11-12T03:48:41.817Z,0
2018-11-12T03:49:43.173Z,0
2018-11-12T03:50:43.417Z,0
2018-11-12T03:51:46.044Z,0
2018-11-12T03:52:46.712Z,0
2018-11-12T03:53:47.344Z,0
2018-11-12T03:54:47.194Z,0
2018-11-12T03:55:47.988Z,0
2018-11-12T03:56:48.508Z,0
2018-11-12T03:57:50.424Z,0
2018-11-12T03:58:51.619Z,0
2018-11-12T03:59:51.139Z,0
2018-11-12T04:00:53.779Z,0
2018-11-12T04:01:53.852Z,0
2018-11-12T04:02:55.207Z,0
2018-11-12T04:03:56.392Z,0
2018-11-12T04:04:56.512Z,0
2018-11-12T04:05:58.424Z,0
2018-11-12T04:06:58.774Z,0
2018-11-12T04:08:00.130Z,0
2018-11-12T04:08:59.923Z,0
2018-11-12T04:10:00.718Z,0
2018-11-12T04:11:01.238Z,0
2018-11-12T04:12:02.595Z,0
2018-11-12T04:13:02.947Z,0
2018-11-12T04:14:03.026Z,0
2018-11-12T04:15:04.200Z,0
2018-11-12T04:16:05.566Z,0
2018-11-12T04:17:05.361Z,0
2018-11-12T04:18:07.996Z,0
2018-11-12T04:19:08.901Z,0
2018-11-12T04:20:08.977Z,0
2018-11-12T04:21:09.773Z,0
2018-11-12T04:22:10.857Z,0
2018-11-12T04:23:11.652Z,0
2018-11-12T04:24:12.729Z,0
2018-11-12T04:25:13.431Z,0
2018-11-12T04:26:13.226Z,0
2018-11-12T04:27:14.022Z,0
2018-11-12T04:28:15.099Z,0
2018-11-12T04:29:14.889Z,0
2018-11-12T04:30:16.989Z,0
2018-11-12T04:31:18.343Z,0
2018-11-12T04:32:18.139Z,0
2018-11-12T04:33:19.771Z,0
2018-11-12T04:34:20.130Z,0
2018-11-12T04:35:20.140Z,0
2018-11-12T04:36:22.210Z,0
2018-11-12T04:37:23.397Z,0
2018-11-12T04:38:23.756Z,0
2018-11-12T04:39:24.839Z,0
2018-11-12T04:40:25.655Z,0
2018-11-12T04:41:26.729Z,0
2018-11-12T04:42:27.250Z,0
2018-11-12T04:43:29.050Z,0
2018-11-12T04:44:29.131Z,0
2018-11-12T04:45:30.891Z,0
2018-11-12T04:46:30.961Z,0
2018-11-12T04:47:32.321Z,0
2018-11-12T04:48:32.560Z,0
2018-11-12T04:49:34.642Z,0
2018-11-12T04:50:35.443Z,0
2018-11-12T04:51:36.515Z,0
2018-11-12T04:52:37.591Z,0
2018-11-12T04:53:39.720Z,0
2018-11-12T04:54:38.905Z,0
2018-11-12T04:55:40.420Z,0
2018-11-12T04:56:40.495Z,0
2018-11-12T04:57:42.130Z,0
2018-11-12T04:58:42.483Z,0
2018-11-12T04:59:44.192Z,0
2018-11-12T05:00:45.273Z,0
2018-11-12T05:01:48.375Z,0
2018-11-12T05:02:47.457Z,0
2018-11-12T05:03:49.091Z,0
2018-11-12T05:04:49.444Z,0
2018-11-12T05:05:50.147Z,0
2018-11-12T05:06:51.783Z,0
2018-11-12T05:07:51.862Z,0
2018-11-12T05:08:52.939Z,0
2018-11-12T05:09:54.289Z,0
2018-11-12T05:10:54.677Z,0
2018-11-12T05:11:56.031Z,0
2018-11-12T05:12:56.106Z,0
2018-11-12T05:13:57.185Z,0
2018-11-12T05:14:58.814Z,0
2018-11-12T05:15:59.938Z,0
2018-11-12T05:17:01.307Z,0
2018-11-12T05:18:02.938Z,0
2018-11-12T05:19:03.568Z,0
2018-11-12T05:20:03.953Z,0
2018-11-12T05:21:04.308Z,0
2018-11-12T05:22:04.386Z,0
2018-11-12T05:23:05.183Z,0
2018-11-12T05:24:07.258Z,0
2018-11-12T05:25:08.337Z,0
2018-11-12T05:26:08.769Z,0
2018-11-12T05:27:10.686Z,0
2018-11-12T05:28:11.869Z,0
2018-11-12T05:29:12.498Z,0
2018-11-12T05:30:13.131Z,0
2018-11-12T05:31:14.038Z,0
2018-11-12T05:32:13.280Z,0
2018-11-12T05:33:14.356Z,0
2018-11-12T05:34:15.724Z,0
2018-11-12T05:35:17.081Z,0
2018-11-12T05:36:17.922Z,0
2018-11-12T05:37:18.721Z,0
2018-11-12T05:38:20.882Z,0
2018-11-12T05:39:21.891Z,0
2018-11-12T05:40:22.971Z,0
2018-11-12T05:41:23.325Z,0
2018-11-12T05:42:24.400Z,0
2018-11-12T05:43:25.483Z,0
2018-11-12T05:44:26.564Z,0
2018-11-12T05:45:27.363Z,0
2018-11-12T05:46:28.772Z,0
2018-11-12T05:47:29.130Z,0
2018-11-12T05:48:30.203Z,0
2018-11-12T05:49:30.456Z,0
2018-11-12T05:50:31.974Z,0
2018-11-12T05:51:34.833Z,0
2018-11-12T05:52:33.695Z,0
2018-11-12T05:53:34.769Z,0
2018-11-12T05:54:35.564Z,0
2018-11-12T05:55:36.644Z,0
2018-11-12T05:56:36.948Z,0
2018-11-12T05:57:37.749Z,0
2018-11-12T05:58:38.552Z,0
2018-11-12T05:59:39.346Z,0
2018-11-12T06:00:40.145Z,0
2018-11-12T06:01:40.955Z,0
2018-11-12T06:02:41.477Z,0
2018-11-12T06:03:42.553Z,0
2018-11-12T06:04:44.863Z,0
2018-11-12T06:05:44.926Z,0
2018-11-12T06:06:45.497Z,5.63
2018-11-12T06:07:46.856Z,5.63
2018-11-12T06:08:46.935Z,5.63
2018-11-12T06:09:48.014Z,5.63
2018-11-12T06:10:48.375Z,5.63
2018-11-12T06:11:49.730Z,5.63
2018-11-12T06:12:51.087Z,5.63
2018-11-12T06:13:51.329Z,11.25
2018-11-12T06:14:52.859Z,11.25
2018-11-12T06:15:54.216Z,11.25
2018-11-12T06:16:54.063Z,11.25
2018-11-12T06:17:55.419Z,11.25
2018-11-12T06:18:56.503Z,16.88
2018-11-12T06:19:57.303Z,16.88
2018-11-12T06:20:58.106Z,16.88
2018-11-12T06:21:58.476Z,16.88
2018-11-12T06:22:59.560Z,22.5
2018-11-12T06:23:59.802Z,22.5
2018-11-12T06:25:01.322Z,22.5
2018-11-12T06:26:01.845Z,22.5
2018-11-12T06:27:02.988Z,28.13
2018-11-12T06:28:03.231Z,28.13
2018-11-12T06:29:05.308Z,28.13
2018-11-12T06:30:04.833Z,28.13
2018-11-12T06:31:07.994Z,33.75
2018-11-12T06:32:07.907Z,33.75
2018-11-12T06:33:09.254Z,33.75
2018-11-12T06:34:09.055Z,33.75
2018-11-12T06:35:10.412Z,39.38
2018-11-12T06:36:09.932Z,39.38
2018-11-12T06:37:10.223Z,39.38
2018-11-12T06:38:12.025Z,45
2018-11-12T06:39:12.547Z,45
2018-11-12T06:40:14.463Z,56.25
2018-11-12T06:41:14.827Z,61.88
2018-11-12T06:42:16.520Z,61.88
2018-11-12T06:43:18.116Z,56.25
2018-11-12T06:44:18.175Z,56.25
2018-11-12T06:45:19.542Z,61.88
2018-11-12T06:46:19.403Z,78.75
2018-11-12T06:47:19.930Z,90
2018-11-12T06:48:20.451Z,95.63
2018-11-12T06:49:21.478Z,101.25
2018-11-12T06:50:22.991Z,106.88
2018-11-12T06:51:23.381Z,112.5
2018-11-12T06:52:24.740Z,84.38
2018-11-12T06:53:27.117Z,73.13
2018-11-12T06:54:26.966Z,73.13
2018-11-12T06:55:27.219Z,78.75
2018-11-12T06:56:27.467Z,84.38
2018-11-12T06:57:29.295Z,118.13
2018-11-12T06:58:29.119Z,275.63
2018-11-12T06:59:29.820Z,365.63
2018-11-12T07:00:31.444Z,298.13
2018-11-12T07:01:31.564Z,140.63
2018-11-12T07:02:32.144Z,90
2018-11-12T07:03:33.239Z,90
2018-11-12T07:04:33.919Z,118.13
2018-11-12T07:05:34.651Z,157.5
2018-11-12T07:06:36.833Z,225
2018-11-12T07:07:36.531Z,168.75
2018-11-12T07:08:37.057Z,106.88
2018-11-12T07:09:38.289Z,247.5
2018-11-12T07:10:39.656Z,613.13
2018-11-12T07:11:40.737Z,573.75
2018-11-12T07:12:41.543Z,303.75
2018-11-12T07:13:42.181Z,523.13
2018-11-12T07:14:43.263Z,922.5
2018-11-12T07:15:44.350Z,1136.25
2018-11-12T07:16:45.123Z,1102.5
2018-11-12T07:17:45.667Z,1029.38
2018-11-12T07:18:46.690Z,990
2018-11-12T07:19:47.511Z,945
2018-11-12T07:20:48.937Z,911.25
2018-11-12T07:21:50.026Z,1040.63
2018-11-12T07:22:50.106Z,933.75
2018-11-12T07:23:50.589Z,630
2018-11-12T07:24:52.232Z,843.75
2018-11-12T07:25:52.764Z,1040.63
2018-11-12T07:26:53.294Z,911.25
2018-11-12T07:27:54.716Z,933.75
2018-11-12T07:28:54.809Z,894.38
2018-11-12T07:29:57.001Z,871.88
2018-11-12T07:30:59.248Z,680.63
2018-11-12T07:31:58.570Z,652.5
2018-11-12T07:32:58.946Z,742.5
2018-11-12T07:33:59.327Z,753.75
2018-11-12T07:34:59.863Z,860.63
2018-11-12T07:36:00.678Z,1074.38
2018-11-12T07:37:01.779Z,1130.63
2018-11-12T07:38:02.468Z,1265.63
2018-11-12T07:39:03.561Z,1501.88
2018-11-12T07:40:04.375Z,1496.25
2018-11-12T07:41:04.909Z,1366.88
2018-11-12T07:42:08.999Z,1400.63
2018-11-12T07:43:08.139Z,1260
2018-11-12T07:44:07.680Z,1074.38
2018-11-12T07:45:09.613Z,1395
2018-11-12T07:46:10.266Z,1726.88
2018-11-12T07:47:11.147Z,1912.5
2018-11-12T07:48:12.707Z,1873.13
2018-11-12T07:49:12.795Z,1710
2018-11-12T07:50:13.897Z,1378.13
2018-11-12T07:51:15.522Z,1203.75
2018-11-12T07:52:14.162Z,1288.13
2018-11-12T07:53:15.425Z,1428.75
2018-11-12T07:54:16.959Z,1620
2018-11-12T07:55:18.461Z,1575
2018-11-12T07:56:20.767Z,1614.38
2018-11-12T07:57:20.839Z,1400.63
2018-11-12T07:58:21.987Z,1305
2018-11-12T07:59:22.803Z,1485
2018-11-12T08:00:24.449Z,1080
2018-11-12T08:01:24.273Z,399.38
2018-11-12T08:02:25.181Z,191.25
2018-11-12T08:03:27.307Z,191.25
2018-11-12T08:04:27.417Z,196.88
2018-11-12T08:05:28.224Z,196.88
2018-11-12T08:06:28.314Z,337.5
2018-11-12T08:07:29.129Z,444.38
2018-11-12T08:08:30.036Z,669.38
2018-11-12T08:09:32.171Z,995.63
2018-11-12T08:10:32.309Z,1023.75
2018-11-12T08:11:32.154Z,905.63
2018-11-12T08:12:33.310Z,928.13
2018-11-12T08:13:33.965Z,945
2018-11-12T08:14:35.205Z,1006.88
2018-11-12T08:15:35.497Z,1130.63
2018-11-12T08:16:36.861Z,1012.5
2018-11-12T08:17:39.986Z,1141.88
2018-11-12T08:18:39.464Z,1411.88
2018-11-12T08:19:40.004Z,1434.38
2018-11-12T08:20:40.536Z,866.25
2018-11-12T08:21:44.825Z,984.38
2018-11-12T08:22:44.247Z,916.88
2018-11-12T08:23:44.342Z,680.63
2018-11-12T08:24:46.839Z,905.63
2018-11-12T08:25:45.092Z,916.88
2018-11-12T08:26:46.350Z,483.75
2018-11-12T08:27:48.504Z,191.25
2018-11-12T08:28:48.539Z,191.25
2018-11-12T08:29:51.116Z,191.25
2018-11-12T08:30:49.795Z,191.25
2018-11-12T08:31:50.884Z,281.25
2018-11-12T08:32:53.317Z,421.88
2018-11-12T08:33:53.367Z,320.63
2018-11-12T08:34:53.456Z,196.88
2018-11-12T08:35:53.818Z,196.88
2018-11-12T08:36:53.912Z,331.88
2018-11-12T08:37:55.291Z,663.75
2018-11-12T08:38:55.625Z,1125
2018-11-12T08:39:58.460Z,1355.63
2018-11-12T08:40:59.453Z,787.5
2018-11-12T08:41:58.293Z,736.88
2018-11-12T08:42:58.823Z,753.75
2018-11-12T08:43:59.359Z,686.25
2018-11-12T08:45:00.475Z,613.13
2018-11-12T08:46:03.029Z,376.88
2018-11-12T08:47:01.895Z,286.88
2018-11-12T08:48:03.087Z,331.88
2018-11-12T08:49:04.311Z,331.88
2018-11-12T08:50:04.888Z,405
2018-11-12T08:51:05.445Z,781.88
2018-11-12T08:52:07.075Z,967.5
2018-11-12T08:53:07.882Z,810
2018-11-12T08:54:07.694Z,478.13
2018-11-12T08:55:09.100Z,658.13
2018-11-12T08:56:09.008Z,506.25
2018-11-12T08:57:09.596Z,286.88
2018-11-12T08:58:16.717Z,472.5
2018-11-12T08:58:24.775Z,506.25
2018-11-12T08:59:25.897Z,770.63
2018-11-12T09:00:27.838Z,871.88
2018-11-12T09:01:27.207Z,421.88
2018-11-12T09:02:28.412Z,275.63
2018-11-12T09:03:28.533Z,320.63
2018-11-12T09:04:31.166Z,573.75
2018-11-12T09:05:30.745Z,939.38
2018-11-12T09:06:30.842Z,1276.88
2018-11-12T09:07:31.648Z,1411.88
2018-11-12T09:08:32.738Z,900
2018-11-12T09:09:33.330Z,939.38
2018-11-12T09:10:35.545Z,1620
2018-11-12T09:11:35.361Z,2019.38
2018-11-12T09:12:36.725Z,1755
2018-11-12T09:13:37.302Z,1468.13
2018-11-12T09:14:38.560Z,1153.13
2018-11-12T09:15:42.694Z,855
2018-11-12T09:16:41.667Z,849.38
2018-11-12T09:17:42.684Z,990
2018-11-12T09:18:43.569Z,1074.38
2018-11-12T09:19:44.991Z,1220.63
2018-11-12T09:20:45.089Z,1603.13
2018-11-12T09:21:46.176Z,1327.5
2018-11-12T09:22:46.582Z,1631.25
2018-11-12T09:23:47.399Z,1755
2018-11-12T09:24:49.025Z,1884.38
2018-11-12T09:25:49.133Z,1468.13
2018-11-12T09:26:49.840Z,1035
2018-11-12T09:27:50.212Z,1220.63
2018-11-12T09:28:50.470Z,1563.75
2018-11-12T09:29:52.798Z,1468.13
2018-11-12T09:31:33.777Z,1018.13
2018-11-12T09:32:30.551Z,1023.75
2018-11-12T09:33:32.065Z,1653.75
2018-11-12T09:34:31.910Z,2323.13
2018-11-12T09:35:32.440Z,2064.38
2018-11-12T09:36:35.753Z,1687.5
2018-11-12T09:38:36.502Z,2722.5
2018-11-12T09:39:36.632Z,2711.25
2018-11-12T09:40:38.170Z,2863.13
2018-11-12T09:41:37.985Z,2728.13
2018-11-12T09:42:39.126Z,2587.5
2018-11-12T09:43:40.219Z,2070
2018-11-12T09:44:42.678Z,1648.13
2018-11-12T09:45:43.757Z,1490.63
2018-11-12T09:46:43.836Z,1490.63
2018-11-12T09:47:45.443Z,1220.63
2018-11-12T09:48:45.471Z,1344.38
2018-11-12T09:49:45.552Z,1479.38
2018-11-12T09:50:46.939Z,1603.13
2018-11-12T09:51:47.037Z,1501.88
2018-11-12T09:52:49.308Z,1676.25
2018-11-12T09:53:50.738Z,1479.38
2018-11-12T09:54:51.063Z,1608.75
2018-11-12T09:55:51.227Z,1575
2018-11-12T09:56:54.479Z,1698.75
2018-11-12T09:57:56.136Z,2368.13
2018-11-12T09:58:56.987Z,2328.75
2018-11-12T09:59:57.412Z,2711.25
2018-11-12T10:01:02.055Z,2328.75
2018-11-12T10:01:12.404Z,2323.13
2018-11-12T10:02:14.186Z,2520
2018-11-12T10:03:16.020Z,3166.88
2018-11-12T10:04:17.568Z,3673.13
2018-11-12T10:07:37.348Z,3571.88
2018-11-12T10:18:23.592Z,3999.38
2018-11-12T10:19:19.330Z,4044.38
2018-11-12T10:20:20.401Z,4072.5
2018-11-12T10:21:21.095Z,3909.38
2018-11-12T10:22:21.938Z,4044.38
2018-11-12T10:23:22.516Z,3954.38
2018-11-12T10:24:23.343Z,3960
2018-11-12T10:25:26.261Z,3960
2018-11-12T10:26:26.202Z,3757.5
2018-11-12T10:27:26.367Z,3543.75
2018-11-12T10:28:27.186Z,3695.63
2018-11-12T10:29:28.028Z,3993.75
2018-11-12T10:30:28.615Z,4044.38
2018-11-12T10:31:29.715Z,4083.75
2018-11-12T10:32:30.367Z,3864.38
2018-11-12T10:33:31.465Z,3397.5
2018-11-12T10:34:32.565Z,3195
2018-11-12T10:35:33.604Z,2728.13
2018-11-12T10:36:33.981Z,2379.38
2018-11-12T10:37:35.080Z,2160
2018-11-12T10:38:36.753Z,1935
2018-11-12T10:39:37.920Z,1963.13
2018-11-12T10:40:37.824Z,2503.13
2018-11-12T10:41:40.038Z,2458.13
2018-11-12T10:42:40.834Z,2311.88
2018-11-12T10:43:41.579Z,2761.88
2018-11-12T10:44:44.087Z,2553.75
2018-11-12T10:45:44.334Z,1935
2018-11-12T10:46:44.713Z,1749.38
2018-11-12T10:47:46.366Z,1822.5
2018-11-12T10:48:46.199Z,2688.75
2018-11-12T10:49:48.014Z,2638.13
2018-11-12T10:51:17.489Z,2503.13
2018-11-12T10:52:16.495Z,2221.88
2018-11-12T10:53:21.333Z,1670.63
2018-11-12T10:53:33.758Z,1580.63
2018-11-12T10:53:57.784Z,1389.38
2018-11-12T10:54:34.036Z,1513.13
2018-11-12T10:54:45.269Z,1558.13
2018-11-12T10:55:44.603Z,1597.5
2018-11-12T10:56:43.653Z,1726.88
2018-11-12T10:57:48.270Z,1400.63
2018-11-12T10:58:46.182Z,1130.63
2018-11-12T10:59:47.376Z,1428.75
2018-11-12T11:00:48.254Z,2188.13
2018-11-12T11:01:49.108Z,2604.38
2018-11-12T11:02:50.065Z,3200.63
2018-11-12T11:03:52.035Z,3251.25
2018-11-12T11:04:51.409Z,3656.25
2018-11-12T11:05:52.026Z,3808.13
2018-11-12T11:06:52.581Z,2148.75
2018-11-12T11:07:53.674Z,1985.63
2018-11-12T11:08:55.045Z,3442.5
2018-11-12T11:09:55.911Z,3892.5
2018-11-12T11:10:56.456Z,3785.63
2018-11-12T11:11:57.555Z,3656.25
2018-11-12T11:12:58.205Z,2379.38
2018-11-12T11:13:58.464Z,444.38
2018-11-12T11:14:59.729Z,1597.5
2018-11-12T11:16:01.153Z,3324.38
2018-11-12T11:17:01.811Z,3076.88
2018-11-12T11:18:02.914Z,2368.13
2018-11-12T11:19:03.461Z,984.38
2018-11-12T11:20:04.279Z,303.75
2018-11-12T11:21:05.956Z,877.5
2018-11-12T11:22:06.791Z,1867.5
2018-11-12T11:23:07.202Z,2013.75
2018-11-12T11:24:07.463Z,2542.5
2018-11-12T11:25:09.391Z,3279.38
2018-11-12T11:26:09.966Z,2424.38
2018-11-12T11:27:10.785Z,748.13
2018-11-12T11:28:12.789Z,1603.13
2018-11-12T11:29:12.676Z,2874.38
2018-11-12T11:30:13.214Z,2199.38
2018-11-12T11:31:14.039Z,2266.88
2018-11-12T11:32:15.138Z,2975.63
2018-11-12T11:33:16.231Z,2908.13
2018-11-12T11:34:16.949Z,2958.75
2018-11-12T11:35:18.319Z,2868.75
2018-11-12T11:36:18.207Z,2649.38
2018-11-12T11:37:18.751Z,2891.25
2018-11-12T11:38:19.308Z,2902.5
2018-11-12T11:39:20.572Z,2075.63
2018-11-12T11:40:22.932Z,1614.38
2018-11-12T11:41:23.132Z,2874.38
2018-11-12T11:42:23.953Z,3391.88
2018-11-12T11:43:24.553Z,3369.38
2018-11-12T11:44:25.444Z,3234.38
2018-11-12T11:45:26.278Z,1850.63
2018-11-12T11:46:27.217Z,708.75
2018-11-12T11:47:30.103Z,1119.38
2018-11-12T11:48:29.786Z,1940.63
2018-11-12T11:49:31.159Z,2413.13
2018-11-12T11:50:33.026Z,2227.5
2018-11-12T11:51:32.444Z,1102.5
2018-11-12T11:52:32.981Z,967.5
2018-11-12T11:53:34.358Z,1642.5
2018-11-12T11:54:36.292Z,1845
2018-11-12T11:55:36.211Z,2103.75
2018-11-12T11:56:38.532Z,2446.88
2018-11-12T11:57:38.353Z,2587.5
2018-11-12T11:58:38.588Z,2396.25
2018-11-12T11:59:38.968Z,2362.5
2018-11-12T12:00:39.786Z,2801.25
2018-11-12T12:01:41.633Z,2458.13
2018-11-12T12:02:43.455Z,1440
2018-11-12T12:03:43.565Z,1620
2018-11-12T12:04:45.045Z,2705.63
2018-11-12T12:05:45.304Z,3088.13
2018-11-12T12:06:46.103Z,3043.13
2018-11-12T12:07:46.347Z,2745
2018-11-12T12:08:47.235Z,2868.75
2018-11-12T12:09:47.084Z,2750.63
2018-11-12T12:10:47.629Z,2401.88
2018-11-12T12:11:48.444Z,2098.13
2018-11-12T12:12:50.266Z,1811.25
2018-11-12T12:13:51.082Z,1912.5
2018-11-12T12:14:52.097Z,2278.13
2018-11-12T12:15:52.913Z,2120.63
2018-11-12T12:16:53.226Z,1845
2018-11-12T12:17:54.651Z,1659.38
2018-11-12T12:18:54.785Z,1220.63
2018-11-12T12:19:56.652Z,1271.25
2018-11-12T12:20:57.072Z,1141.88
2018-11-12T12:21:58.342Z,2300.63
2018-11-12T12:22:58.442Z,2846.25
2018-11-12T12:23:59.368Z,2548.13
2018-11-12T12:25:02.474Z,2356.88
2018-11-12T12:26:04.609Z,1636.88
2018-11-12T12:27:03.030Z,1788.75
2018-11-12T12:28:05.126Z,2126.25
2018-11-12T12:29:06.215Z,2216.25
2018-11-12T12:30:06.594Z,2430
2018-11-12T12:31:07.409Z,2430
2018-11-12T12:32:08.737Z,2373.75
2018-11-12T12:33:10.073Z,2435.63
2018-11-12T12:34:11.296Z,2401.88
2018-11-12T12:35:10.560Z,2553.75
2018-11-12T12:36:14.633Z,2216.25
2018-11-12T12:37:12.706Z,1755
2018-11-12T12:38:13.802Z,1023.75
2018-11-12T12:39:15.452Z,871.88
2018-11-12T12:40:15.564Z,568.13
2018-11-12T12:41:16.654Z,1400.63
2018-11-12T12:42:17.746Z,2036.25
2018-11-12T12:43:18.564Z,1681.88
2018-11-12T12:44:20.917Z,1541.25
2018-11-12T12:45:20.127Z,2053.13
2018-11-12T12:46:20.769Z,1985.63
2018-11-12T12:47:21.916Z,1805.63
2018-11-12T12:48:22.289Z,1530
2018-11-12T12:49:24.137Z,1440
2018-11-12T12:50:39.668Z,2143.13
2018-11-12T12:51:39.652Z,1687.5
2018-11-12T12:52:38.885Z,1968.75
2018-11-12T12:53:39.744Z,1580.63
2018-11-12T12:54:40.298Z,1884.38
2018-11-12T12:55:43.013Z,2103.75
2018-11-12T12:56:42.470Z,2109.38
2018-11-12T12:57:43.228Z,1738.13
2018-11-12T12:58:43.861Z,1861.88
2018-11-12T12:59:45.219Z,1681.88
2018-11-12T13:00:45.702Z,2289.38
2018-11-12T13:01:48.623Z,2615.63
2018-11-12T13:02:48.502Z,2823.75
2018-11-12T13:03:48.047Z,2829.38
2018-11-12T13:04:55.153Z,2801.25
2018-11-12T13:05:03.098Z,2795.63
2018-11-12T13:06:03.805Z,2745
2018-11-12T13:07:03.900Z,2688.75
2018-11-12T13:08:04.720Z,2638.13
2018-11-12T13:09:24.089Z,2626.88
2018-11-12T13:09:32.276Z,2626.88
2018-11-12T13:10:36.630Z,2531.25
2018-11-12T13:10:43.001Z,2520
2018-11-12T13:11:44.112Z,2390.63
2018-11-12T13:12:44.204Z,2227.5
2018-11-12T13:13:45.426Z,2272.5
2018-11-12T13:14:47.475Z,2761.88
2018-11-12T13:15:46.907Z,2761.88
2018-11-12T13:16:47.768Z,1423.13
2018-11-12T13:17:49.139Z,2115
2018-11-12T13:18:49.957Z,2075.63
2018-11-12T13:19:54.771Z,2311.88
2018-11-12T13:20:02.814Z,2373.75
2018-11-12T13:21:04.970Z,2165.63
2018-11-12T13:22:05.353Z,2019.38
2018-11-12T13:23:07.000Z,2188.13
2018-11-12T13:24:07.094Z,2030.63
2018-11-12T13:25:08.188Z,2205
2018-11-12T13:26:08.284Z,2300.63
2018-11-12T13:27:09.379Z,1929.38
2018-11-12T13:28:10.467Z,1518.75
2018-11-12T13:29:10.562Z,1220.63
2018-11-12T13:30:11.101Z,2070
2018-11-12T13:31:11.686Z,2334.38
2018-11-12T13:32:12.834Z,2306.25
2018-11-12T13:33:13.205Z,2188.13
2018-11-12T13:34:14.626Z,1929.38
2018-11-12T13:35:15.163Z,1783.13
2018-11-12T13:36:17.547Z,1884.38
2018-11-12T13:37:17.364Z,1755
2018-11-12T13:38:20.087Z,1653.75
2018-11-12T13:39:21.127Z,1743.75
2018-11-12T13:40:21.628Z,1625.63
2018-11-12T13:41:22.843Z,1108.13
2018-11-12T13:42:23.386Z,1310.63